sensor_id;sensor_type;location;lat;lon;timestamp;pressure;altitude;pressure_sealevel;temperature;humidity
8627;BME280;4351;51.422;6.794;2023-08-30T00:00:57;100691.75;;;14.65;100.00
8627;BME280;4351;51.422;6.794;2023-08-30T00:03:25;100680.41;;;14.71;100.00
8627;BME280;4351;51.422;6.794;2023-08-30T00:05:53;100670.03;;;14.65;100.00
8627;BME280;4351;51.422;6.794;2023-08-30T00:08:21;100665.31;;;14.55;100.00
8627;BME280;4351;51.422;6.794;2023-08-30T00:10:51;100658.78;;;14.58;100.00
8627;BME280;4351;51.422;6.794;2023-08-30T00:13:19;100649.00;;;14.44;100.00
8627;BME280;4351;51.422;6.794;2023-08-30T00:15:46;100642.59;;;14.45;100.00
8627;BME280;4351;51.422;6.794;2023-08-30T00:18:14;100645.06;;;14.36;100.00
8627;BME280;4351;51.422;6.794;2023-08-30T00:20:42;100643.72;;;14.42;100.00
8627;BME280;4351;51.422;6.794;2023-08-30T00:23:10;100648.25;;;14.42;100.00
8627;BME280;4351;51.422;6.794;2023-08-30T00:25:38;100651.34;;;14.37;100.00
8627;BME280;4351;51.422;6.794;2023-08-30T00:28:07;100662.44;;;14.34;100.00
8627;BME280;4351;51.422;6.794;2023-08-30T00:30:36;100660.84;;;14.31;100.00
8627;BME280;4351;51.422;6.794;2023-08-30T00:33:04;100652.47;;;14.34;100.00
8627;BME280;4351;51.422;6.794;2023-08-30T00:35:32;100657.34;;;14.18;100.00
8627;BME280;4351;51.422;6.794;2023-08-30T00:38:00;100647.75;;;14.25;100.00
8627;BME280;4351;51.422;6.794;2023-08-30T00:40:28;100645.47;;;14.07;100.00
8627;BME280;4351;51.422;6.794;2023-08-30T00:42:57;100629.59;;;14.14;100.00
8627;BME280;4351;51.422;6.794;2023-08-30T00:45:26;100623.31;;;14.13;100.00
8627;BME280;4351;51.422;6.794;2023-08-30T00:47:54;100628.50;;;14.17;100.00
8627;BME280;4351;51.422;6.794;2023-08-30T00:50:24;100629.72;;;14.12;100.00
8627;BME280;4351;51.422;6.794;2023-08-30T00:52:52;100635.91;;;14.14;100.00
8627;BME280;4351;51.422;6.794;2023-08-30T00:55:20;100650.94;;;14.19;100.00
8627;BME280;4351;51.422;6.794;2023-08-30T00:57:48;100666.47;;;14.17;100.00
8627;BME280;4351;51.422;6.794;2023-08-30T01:00:16;100658.44;;;14.15;100.00
8627;BME280;4351;51.422;6.794;2023-08-30T01:02:47;100652.16;;;14.14;100.00
8627;BME280;4351;51.422;6.794;2023-08-30T01:05:15;100659.31;;;14.16;100.00
8627;BME280;4351;51.422;6.794;2023-08-30T01:07:44;100654.97;;;14.13;100.00
8627;BME280;4351;51.422;6.794;2023-08-30T01:10:12;100649.69;;;14.11;100.00
8627;BME280;4351;51.422;6.794;2023-08-30T01:12:43;100640.56;;;14.12;100.00
8627;BME280;4351;51.422;6.794;2023-08-30T01:15:13;100653.75;;;14.06;100.00
8627;BME280;4351;51.422;6.794;2023-08-30T01:17:43;100654.63;;;14.06;100.00
8627;BME280;4351;51.422;6.794;2023-08-30T01:20:15;100652.00;;;14.05;100.00
8627;BME280;4351;51.422;6.794;2023-08-30T01:22:49;100658.06;;;14.08;100.00
8627;BME280;4351;51.422;6.794;2023-08-30T01:25:30;100643.78;;;14.06;100.00
8627;BME280;4351;51.422;6.794;2023-08-30T01:28:04;100644.00;;;14.03;100.00
8627;BME280;4351;51.422;6.794;2023-08-30T01:30:34;100651.78;;;14.08;100.00
8627;BME280;4351;51.422;6.794;2023-08-30T01:33:04;100666.44;;;14.05;100.00
8627;BME280;4351;51.422;6.794;2023-08-30T01:35:33;100689.22;;;14.02;100.00
8627;BME280;4351;51.422;6.794;2023-08-30T01:38:07;100711.16;;;13.99;100.00
8627;BME280;4351;51.422;6.794;2023-08-30T01:40:38;100729.03;;;14.02;100.00
8627;BME280;4351;51.422;6.794;2023-08-30T01:43:09;100730.25;;;13.98;100.00
8627;BME280;4351;51.422;6.794;2023-08-30T01:45:41;100722.72;;;13.90;100.00
8627;BME280;4351;51.422;6.794;2023-08-30T01:48:11;100739.59;;;13.94;100.00
8627;BME280;4351;51.422;6.794;2023-08-30T01:50:40;100732.22;;;13.96;100.00
8627;BME280;4351;51.422;6.794;2023-08-30T01:53:11;100728.41;;;13.98;100.00
8627;BME280;4351;51.422;6.794;2023-08-30T01:55:40;100729.28;;;13.99;100.00
8627;BME280;4351;51.422;6.794;2023-08-30T01:58:09;100721.28;;;13.97;100.00
8627;BME280;4351;51.422;6.794;2023-08-30T02:00:38;100718.03;;;13.92;100.00
8627;BME280;4351;51.422;6.794;2023-08-30T02:03:08;100725.28;;;13.91;100.00
8627;BME280;4351;51.422;6.794;2023-08-30T02:05:37;100732.56;;;13.91;100.00
8627;BME280;4351;51.422;6.794;2023-08-30T02:08:12;100745.28;;;13.90;100.00
8627;BME280;4351;51.422;6.794;2023-08-30T02:10:48;100742.31;;;13.94;100.00
8627;BME280;4351;51.422;6.794;2023-08-30T02:13:19;100740.13;;;13.99;100.00
8627;BME280;4351;51.422;6.794;2023-08-30T02:15:49;100754.16;;;13.93;100.00
8627;BME280;4351;51.422;6.794;2023-08-30T02:18:19;100762.28;;;13.93;100.00
8627;BME280;4351;51.422;6.794;2023-08-30T02:20:51;100765.50;;;13.98;100.00
8627;BME280;4351;51.422;6.794;2023-08-30T02:23:22;100767.47;;;13.96;100.00
8627;BME280;4351;51.422;6.794;2023-08-30T02:25:51;100771.38;;;13.91;100.00
8627;BME280;4351;51.422;6.794;2023-08-30T02:28:22;100785.94;;;13.90;100.00
8627;BME280;4351;51.422;6.794;2023-08-30T02:30:52;100794.28;;;13.87;100.00
8627;BME280;4351;51.422;6.794;2023-08-30T02:33:21;100804.59;;;13.82;100.00
8627;BME280;4351;51.422;6.794;2023-08-30T02:35:48;100804.38;;;13.85;100.00
8627;BME280;4351;51.422;6.794;2023-08-30T02:38:16;100816.22;;;13.84;100.00
8627;BME280;4351;51.422;6.794;2023-08-30T02:40:44;100823.94;;;13.77;100.00
8627;BME280;4351;51.422;6.794;2023-08-30T02:43:12;100830.13;;;13.79;100.00
8627;BME280;4351;51.422;6.794;2023-08-30T02:45:42;100838.34;;;13.78;100.00
8627;BME280;4351;51.422;6.794;2023-08-30T02:48:11;100857.53;;;13.88;100.00
8627;BME280;4351;51.422;6.794;2023-08-30T02:50:40;100856.91;;;13.84;100.00
8627;BME280;4351;51.422;6.794;2023-08-30T02:53:08;100845.81;;;13.87;100.00
8627;BME280;4351;51.422;6.794;2023-08-30T02:55:36;100855.78;;;13.87;100.00
8627;BME280;4351;51.422;6.794;2023-08-30T02:58:04;100854.50;;;13.93;100.00
8627;BME280;4351;51.422;6.794;2023-08-30T03:00:32;100848.44;;;13.76;100.00
8627;BME280;4351;51.422;6.794;2023-08-30T03:03:03;100853.31;;;13.84;100.00
8627;BME280;4351;51.422;6.794;2023-08-30T03:05:31;100855.91;;;13.85;100.00
8627;BME280;4351;51.422;6.794;2023-08-30T03:08:00;100856.34;;;13.79;100.00
8627;BME280;4351;51.422;6.794;2023-08-30T03:10:28;100849.94;;;13.80;100.00
8627;BME280;4351;51.422;6.794;2023-08-30T03:12:56;100857.09;;;13.81;100.00
8627;BME280;4351;51.422;6.794;2023-08-30T03:15:24;100857.31;;;13.78;100.00
8627;BME280;4351;51.422;6.794;2023-08-30T03:17:52;100828.50;;;13.77;100.00
8627;BME280;4351;51.422;6.794;2023-08-30T03:20:21;100821.56;;;13.73;100.00
8627;BME280;4351;51.422;6.794;2023-08-30T03:22:49;100818.72;;;13.74;100.00
8627;BME280;4351;51.422;6.794;2023-08-30T03:25:17;100822.00;;;13.66;100.00
8627;BME280;4351;51.422;6.794;2023-08-30T03:27:45;100817.44;;;13.67;100.00
8627;BME280;4351;51.422;6.794;2023-08-30T03:30:13;100822.22;;;13.63;100.00
8627;BME280;4351;51.422;6.794;2023-08-30T03:32:42;100839.03;;;13.68;100.00
8627;BME280;4351;51.422;6.794;2023-08-30T03:35:10;100842.81;;;13.66;100.00
8627;BME280;4351;51.422;6.794;2023-08-30T03:37:39;100841.75;;;13.68;100.00
8627;BME280;4351;51.422;6.794;2023-08-30T03:40:07;100857.78;;;13.72;100.00
8627;BME280;4351;51.422;6.794;2023-08-30T03:42:36;100844.44;;;13.68;100.00
8627;BME280;4351;51.422;6.794;2023-08-30T03:45:05;100832.94;;;13.65;100.00
8627;BME280;4351;51.422;6.794;2023-08-30T03:47:33;100827.19;;;13.70;100.00
8627;BME280;4351;51.422;6.794;2023-08-30T03:50:00;100814.50;;;13.70;100.00
8627;BME280;4351;51.422;6.794;2023-08-30T03:52:28;100811.94;;;13.55;100.00
8627;BME280;4351;51.422;6.794;2023-08-30T03:54:58;100820.16;;;13.67;100.00
8627;BME280;4351;51.422;6.794;2023-08-30T03:57:26;100817.56;;;13.65;100.00
8627;BME280;4351;51.422;6.794;2023-08-30T03:59:54;100812.25;;;13.64;100.00
8627;BME280;4351;51.422;6.794;2023-08-30T04:02:22;100814.84;;;13.65;100.00
8627;BME280;4351;51.422;6.794;2023-08-30T04:04:50;100812.25;;;13.64;100.00
8627;BME280;4351;51.422;6.794;2023-08-30T04:07:18;100801.88;;;13.58;100.00
8627;BME280;4351;51.422;6.794;2023-08-30T04:09:47;100784.72;;;13.57;100.00
8627;BME280;4351;51.422;6.794;2023-08-30T04:12:17;100781.78;;;13.60;100.00
8627;BME280;4351;51.422;6.794;2023-08-30T04:14:44;100762.06;;;13.58;100.00
8627;BME280;4351;51.422;6.794;2023-08-30T04:17:12;100750.88;;;13.50;100.00
8627;BME280;4351;51.422;6.794;2023-08-30T04:19:40;100738.53;;;13.45;100.00
8627;BME280;4351;51.422;6.794;2023-08-30T04:22:08;100720.56;;;13.44;100.00
8627;BME280;4351;51.422;6.794;2023-08-30T04:24:36;100702.84;;;13.52;100.00
8627;BME280;4351;51.422;6.794;2023-08-30T04:27:04;100689.75;;;13.45;100.00
8627;BME280;4351;51.422;6.794;2023-08-30T04:29:34;100691.97;;;13.40;100.00
8627;BME280;4351;51.422;6.794;2023-08-30T04:32:02;100684.34;;;13.45;100.00
8627;BME280;4351;51.422;6.794;2023-08-30T04:34:30;100679.38;;;13.39;100.00
8627;BME280;4351;51.422;6.794;2023-08-30T04:36:58;100677.88;;;13.35;100.00
8627;BME280;4351;51.422;6.794;2023-08-30T04:39:26;100665.09;;;13.37;100.00
8627;BME280;4351;51.422;6.794;2023-08-30T04:41:54;100671.78;;;13.44;100.00
8627;BME280;4351;51.422;6.794;2023-08-30T04:44:23;100659.09;;;13.45;100.00
8627;BME280;4351;51.422;6.794;2023-08-30T04:46:53;100654.66;;;13.44;100.00
8627;BME280;4351;51.422;6.794;2023-08-30T04:49:22;100640.81;;;13.36;100.00
8627;BME280;4351;51.422;6.794;2023-08-30T04:51:51;100636.25;;;13.36;100.00
8627;BME280;4351;51.422;6.794;2023-08-30T04:54:19;100636.25;;;13.36;100.00
8627;BME280;4351;51.422;6.794;2023-08-30T04:56:47;100641.25;;;13.42;100.00
8627;BME280;4351;51.422;6.794;2023-08-30T04:59:15;100642.19;;;13.41;100.00
8627;BME280;4351;51.422;6.794;2023-08-30T05:01:46;100646.13;;;13.37;100.00
8627;BME280;4351;51.422;6.794;2023-08-30T05:04:17;100650.88;;;13.47;100.00
8627;BME280;4351;51.422;6.794;2023-08-30T05:06:45;100661.13;;;13.54;100.00
8627;BME280;4351;51.422;6.794;2023-08-30T05:09:13;100655.06;;;13.51;100.00
8627;BME280;4351;51.422;6.794;2023-08-30T05:11:42;100639.69;;;13.51;100.00
8627;BME280;4351;51.422;6.794;2023-08-30T05:14:10;100638.50;;;13.55;100.00
8627;BME280;4351;51.422;6.794;2023-08-30T05:16:39;100631.22;;;13.56;100.00
8627;BME280;4351;51.422;6.794;2023-08-30T05:19:08;100637.72;;;13.53;100.00
8627;BME280;4351;51.422;6.794;2023-08-30T05:21:37;100635.84;;;13.54;100.00
8627;BME280;4351;51.422;6.794;2023-08-30T05:24:05;100647.03;;;13.62;100.00
8627;BME280;4351;51.422;6.794;2023-08-30T05:26:34;100652.47;;;13.62;100.00
8627;BME280;4351;51.422;6.794;2023-08-30T05:29:01;100651.19;;;13.55;100.00
8627;BME280;4351;51.422;6.794;2023-08-30T05:31:29;100653.97;;;13.66;100.00
8627;BME280;4351;51.422;6.794;2023-08-30T05:34:20;100676.16;;;13.72;100.00
8627;BME280;4351;51.422;6.794;2023-08-30T05:37:10;100681.81;;;13.68;100.00
8627;BME280;4351;51.422;6.794;2023-08-30T05:39:56;100699.44;;;13.74;100.00
8627;BME280;4351;51.422;6.794;2023-08-30T05:42:24;100717.09;;;13.80;100.00
8627;BME280;4351;51.422;6.794;2023-08-30T05:44:55;100721.34;;;13.84;100.00
8627;BME280;4351;51.422;6.794;2023-08-30T05:47:23;100724.13;;;13.83;100.00
8627;BME280;4351;51.422;6.794;2023-08-30T05:49:51;100734.75;;;13.86;100.00
8627;BME280;4351;51.422;6.794;2023-08-30T05:52:20;100737.13;;;13.90;100.00
8627;BME280;4351;51.422;6.794;2023-08-30T05:54:48;100731.59;;;13.92;100.00
8627;BME280;4351;51.422;6.794;2023-08-30T05:57:17;100739.88;;;14.02;100.00
8627;BME280;4351;51.422;6.794;2023-08-30T05:59:45;100739.66;;;14.05;100.00
8627;BME280;4351;51.422;6.794;2023-08-30T06:02:13;100734.84;;;14.09;100.00
8627;BME280;4351;51.422;6.794;2023-08-30T06:04:40;100724.66;;;14.12;100.00
8627;BME280;4351;51.422;6.794;2023-08-30T06:07:08;100712.81;;;14.13;100.00
8627;BME280;4351;51.422;6.794;2023-08-30T06:09:37;100701.75;;;14.17;100.00
8627;BME280;4351;51.422;6.794;2023-08-30T06:12:06;100704.50;;;14.28;100.00
8627;BME280;4351;51.422;6.794;2023-08-30T06:14:34;100691.91;;;14.27;100.00
8627;BME280;4351;51.422;6.794;2023-08-30T06:17:02;100690.69;;;14.31;100.00
8627;BME280;4351;51.422;6.794;2023-08-30T06:19:29;100680.44;;;14.35;100.00
8627;BME280;4351;51.422;6.794;2023-08-30T06:21:57;100680.09;;;14.40;100.00
8627;BME280;4351;51.422;6.794;2023-08-30T06:24:25;100667.63;;;14.37;100.00
8627;BME280;4351;51.422;6.794;2023-08-30T06:26:54;100666.91;;;14.46;100.00
8627;BME280;4351;51.422;6.794;2023-08-30T06:29:22;100659.03;;;14.43;100.00
8627;BME280;4351;51.422;6.794;2023-08-30T06:31:50;100680.13;;;14.51;100.00
8627;BME280;4351;51.422;6.794;2023-08-30T06:34:18;100695.44;;;14.52;100.00
8627;BME280;4351;51.422;6.794;2023-08-30T06:36:46;100699.16;;;14.63;100.00
8627;BME280;4351;51.422;6.794;2023-08-30T06:39:14;100691.88;;;14.75;100.00
8627;BME280;4351;51.422;6.794;2023-08-30T06:41:42;100676.31;;;14.77;100.00
8627;BME280;4351;51.422;6.794;2023-08-30T06:44:14;100671.41;;;14.82;100.00
8627;BME280;4351;51.422;6.794;2023-08-30T06:46:43;100651.78;;;14.78;100.00
8627;BME280;4351;51.422;6.794;2023-08-30T06:49:11;100641.38;;;14.83;100.00
8627;BME280;4351;51.422;6.794;2023-08-30T06:51:39;100622.19;;;14.98;100.00
8627;BME280;4351;51.422;6.794;2023-08-30T06:54:06;100591.28;;;14.99;100.00
8627;BME280;4351;51.422;6.794;2023-08-30T06:56:34;100567.06;;;15.08;100.00
8627;BME280;4351;51.422;6.794;2023-08-30T06:59:02;100538.03;;;15.20;100.00
8627;BME280;4351;51.422;6.794;2023-08-30T07:01:32;100525.22;;;15.10;100.00
8627;BME280;4351;51.422;6.794;2023-08-30T07:04:02;100485.19;;;15.12;100.00
8627;BME280;4351;51.422;6.794;2023-08-30T07:06:31;100457.06;;;15.13;100.00
8627;BME280;4351;51.422;6.794;2023-08-30T07:08:59;100437.16;;;15.13;100.00
8627;BME280;4351;51.422;6.794;2023-08-30T07:11:26;100423.94;;;15.20;100.00
8627;BME280;4351;51.422;6.794;2023-08-30T07:14:00;100404.53;;;15.24;100.00
8627;BME280;4351;51.422;6.794;2023-08-30T07:16:28;100389.34;;;15.22;100.00
8627;BME280;4351;51.422;6.794;2023-08-30T07:18:59;100373.75;;;15.24;100.00
8627;BME280;4351;51.422;6.794;2023-08-30T07:21:28;100344.66;;;15.36;100.00
8627;BME280;4351;51.422;6.794;2023-08-30T07:23:56;100345.38;;;15.38;100.00
8627;BME280;4351;51.422;6.794;2023-08-30T07:26:24;100331.66;;;15.39;100.00
8627;BME280;4351;51.422;6.794;2023-08-30T07:28:52;100323.84;;;15.46;100.00
8627;BME280;4351;51.422;6.794;2023-08-30T07:31:20;100309.72;;;15.52;100.00
8627;BME280;4351;51.422;6.794;2023-08-30T07:33:48;100314.84;;;15.56;100.00
8627;BME280;4351;51.422;6.794;2023-08-30T07:36:17;100306.19;;;15.62;100.00
8627;BME280;4351;51.422;6.794;2023-08-30T07:38:49;100292.28;;;15.65;100.00
8627;BME280;4351;51.422;6.794;2023-08-30T07:41:17;100283.72;;;15.70;100.00
8627;BME280;4351;51.422;6.794;2023-08-30T07:43:45;100296.50;;;15.89;100.00
8627;BME280;4351;51.422;6.794;2023-08-30T07:46:13;100309.84;;;15.92;100.00
8627;BME280;4351;51.422;6.794;2023-08-30T07:48:41;100302.81;;;15.90;100.00
8627;BME280;4351;51.422;6.794;2023-08-30T07:51:09;100295.38;;;16.02;100.00
8627;BME280;4351;51.422;6.794;2023-08-30T07:53:38;100278.09;;;16.13;100.00
8627;BME280;4351;51.422;6.794;2023-08-30T07:56:06;100255.09;;;16.27;100.00
8627;BME280;4351;51.422;6.794;2023-08-30T07:58:35;100234.59;;;16.23;100.00
8627;BME280;4351;51.422;6.794;2023-08-30T08:01:03;100234.03;;;16.29;100.00
8627;BME280;4351;51.422;6.794;2023-08-30T08:03:31;100231.44;;;16.37;100.00
8627;BME280;4351;51.422;6.794;2023-08-30T08:05:59;100227.41;;;16.41;100.00
8627;BME280;4351;51.422;6.794;2023-08-30T08:08:27;100196.78;;;16.39;100.00
8627;BME280;4351;51.422;6.794;2023-08-30T08:10:58;100198.91;;;16.46;100.00
8627;BME280;4351;51.422;6.794;2023-08-30T08:13:26;100188.16;;;16.64;100.00
8627;BME280;4351;51.422;6.794;2023-08-30T08:15:55;100193.97;;;16.89;100.00
8627;BME280;4351;51.422;6.794;2023-08-30T08:18:24;100196.31;;;16.64;100.00
8627;BME280;4351;51.422;6.794;2023-08-30T08:20:53;100192.44;;;16.66;100.00
8627;BME280;4351;51.422;6.794;2023-08-30T08:23:21;100211.78;;;16.73;100.00
8627;BME280;4351;51.422;6.794;2023-08-30T08:25:56;100211.31;;;16.88;100.00
8627;BME280;4351;51.422;6.794;2023-08-30T08:28:25;100181.72;;;17.03;100.00
8627;BME280;4351;51.422;6.794;2023-08-30T08:30:53;100222.75;;;17.01;100.00
8627;BME280;4351;51.422;6.794;2023-08-30T08:33:21;100245.31;;;17.32;100.00
8627;BME280;4351;51.422;6.794;2023-08-30T08:35:50;100266.50;;;17.48;100.00
8627;BME280;4351;51.422;6.794;2023-08-30T08:38:18;100294.94;;;17.35;100.00
8627;BME280;4351;51.422;6.794;2023-08-30T08:40:46;100322.00;;;17.47;100.00
8627;BME280;4351;51.422;6.794;2023-08-30T08:43:17;100347.75;;;17.34;100.00
8627;BME280;4351;51.422;6.794;2023-08-30T08:45:48;100355.03;;;17.44;100.00
8627;BME280;4351;51.422;6.794;2023-08-30T08:48:17;100371.78;;;17.49;100.00
8627;BME280;4351;51.422;6.794;2023-08-30T08:50:45;100386.72;;;17.55;100.00
8627;BME280;4351;51.422;6.794;2023-08-30T08:53:13;100383.41;;;17.61;100.00
8627;BME280;4351;51.422;6.794;2023-08-30T08:55:43;100399.06;;;17.49;100.00
8627;BME280;4351;51.422;6.794;2023-08-30T08:58:14;100410.50;;;17.63;100.00
8627;BME280;4351;51.422;6.794;2023-08-30T09:00:42;100434.50;;;17.49;100.00
8627;BME280;4351;51.422;6.794;2023-08-30T09:03:12;100452.88;;;17.47;100.00
8627;BME280;4351;51.422;6.794;2023-08-30T09:05:42;100446.84;;;17.53;100.00
8627;BME280;4351;51.422;6.794;2023-08-30T09:08:11;100456.47;;;17.38;100.00
8627;BME280;4351;51.422;6.794;2023-08-30T09:10:40;100463.66;;;17.19;100.00
8627;BME280;4351;51.422;6.794;2023-08-30T09:13:08;100470.25;;;17.16;100.00
8627;BME280;4351;51.422;6.794;2023-08-30T09:15:37;100468.66;;;17.14;100.00
8627;BME280;4351;51.422;6.794;2023-08-30T09:18:15;100459.94;;;17.40;100.00
8627;BME280;4351;51.422;6.794;2023-08-30T09:20:44;100476.56;;;17.46;100.00
8627;BME280;4351;51.422;6.794;2023-08-30T09:23:18;100502.25;;;17.24;100.00
8627;BME280;4351;51.422;6.794;2023-08-30T09:25:47;100526.41;;;16.87;100.00
8627;BME280;4351;51.422;6.794;2023-08-30T09:28:22;100508.31;;;16.76;100.00
8627;BME280;4351;51.422;6.794;2023-08-30T09:30:51;100509.44;;;16.54;100.00
8627;BME280;4351;51.422;6.794;2023-08-30T09:33:22;100492.56;;;16.39;100.00
8627;BME280;4351;51.422;6.794;2023-08-30T09:35:50;100466.78;;;16.33;100.00
8627;BME280;4351;51.422;6.794;2023-08-30T09:38:19;100434.63;;;16.17;100.00
8627;BME280;4351;51.422;6.794;2023-08-30T09:40:46;100382.94;;;16.17;100.00
8627;BME280;4351;51.422;6.794;2023-08-30T09:43:18;100318.50;;;16.07;100.00
8627;BME280;4351;51.422;6.794;2023-08-30T09:45:48;100279.38;;;15.98;100.00
8627;BME280;4351;51.422;6.794;2023-08-30T09:48:17;100247.13;;;15.84;100.00
8627;BME280;4351;51.422;6.794;2023-08-30T09:50:52;100196.56;;;15.71;100.00
8627;BME280;4351;51.422;6.794;2023-08-30T09:53:23;100161.22;;;15.71;100.00
8627;BME280;4351;51.422;6.794;2023-08-30T09:55:53;100168.09;;;15.75;100.00
8627;BME280;4351;51.422;6.794;2023-08-30T09:58:23;100194.16;;;15.68;100.00
8627;BME280;4351;51.422;6.794;2023-08-30T10:00:54;100235.91;;;15.67;100.00
8627;BME280;4351;51.422;6.794;2023-08-30T10:03:22;100301.56;;;15.62;100.00
8627;BME280;4351;51.422;6.794;2023-08-30T10:05:59;100349.28;;;15.77;100.00
8627;BME280;4351;51.422;6.794;2023-08-30T10:08:28;100404.22;;;15.70;100.00
8627;BME280;4351;51.422;6.794;2023-08-30T10:10:58;100476.44;;;15.63;100.00
8627;BME280;4351;51.422;6.794;2023-08-30T10:13:26;100565.75;;;15.46;100.00
8627;BME280;4351;51.422;6.794;2023-08-30T10:16:00;100665.34;;;15.69;100.00
8627;BME280;4351;51.422;6.794;2023-08-30T10:18:32;100722.72;;;15.77;100.00
8627;BME280;4351;51.422;6.794;2023-08-30T10:21:10;100713.91;;;15.73;100.00
8627;BME280;4351;51.422;6.794;2023-08-30T10:23:40;100730.88;;;15.66;100.00
8627;BME280;4351;51.422;6.794;2023-08-30T10:26:08;100789.34;;;15.60;100.00
8627;BME280;4351;51.422;6.794;2023-08-30T10:28:36;100830.50;;;15.55;100.00
8627;BME280;4351;51.422;6.794;2023-08-30T10:31:06;100875.34;;;15.61;100.00
8627;BME280;4351;51.422;6.794;2023-08-30T10:33:46;100918.50;;;15.66;100.00
8627;BME280;4351;51.422;6.794;2023-08-30T10:36:21;100954.44;;;15.58;100.00
8627;BME280;4351;51.422;6.794;2023-08-30T10:38:51;101016.00;;;15.59;100.00
8627;BME280;4351;51.422;6.794;2023-08-30T10:41:20;101129.09;;;15.61;100.00
8627;BME280;4351;51.422;6.794;2023-08-30T10:43:49;101229.88;;;15.71;100.00
8627;BME280;4351;51.422;6.794;2023-08-30T10:46:29;101145.63;;;15.58;100.00
8627;BME280;4351;51.422;6.794;2023-08-30T10:49:08;101038.19;;;15.77;100.00
8627;BME280;4351;51.422;6.794;2023-08-30T10:51:39;100974.97;;;15.50;100.00
8627;BME280;4351;51.422;6.794;2023-08-30T10:54:13;100958.00;;;15.35;100.00
8627;BME280;4351;51.422;6.794;2023-08-30T10:56:46;100987.53;;;15.40;100.00
8627;BME280;4351;51.422;6.794;2023-08-30T10:59:18;101034.25;;;15.45;100.00
8627;BME280;4351;51.422;6.794;2023-08-30T11:01:47;101094.03;;;15.21;100.00
8627;BME280;4351;51.422;6.794;2023-08-30T11:04:16;101223.94;;;15.28;100.00
8627;BME280;4351;51.422;6.794;2023-08-30T11:06:46;101385.06;;;15.31;100.00
8627;BME280;4351;51.422;6.794;2023-08-30T11:09:15;101570.41;;;15.36;100.00
8627;BME280;4351;51.422;6.794;2023-08-30T11:11:45;101789.38;;;15.42;100.00
8627;BME280;4351;51.422;6.794;2023-08-30T11:14:14;101868.41;;;15.38;100.00
8627;BME280;4351;51.422;6.794;2023-08-30T11:16:42;101991.44;;;15.57;100.00
8627;BME280;4351;51.422;6.794;2023-08-30T11:19:11;102069.13;;;15.46;100.00
8627;BME280;4351;51.422;6.794;2023-08-30T11:21:39;102149.84;;;15.46;100.00
8627;BME280;4351;51.422;6.794;2023-08-30T11:24:11;102209.56;;;15.47;100.00
8627;BME280;4351;51.422;6.794;2023-08-30T11:26:39;102224.03;;;15.64;100.00
8627;BME280;4351;51.422;6.794;2023-08-30T11:29:08;102098.06;;;15.47;100.00
8627;BME280;4351;51.422;6.794;2023-08-30T11:31:36;102062.06;;;15.58;100.00
8627;BME280;4351;51.422;6.794;2023-08-30T11:34:03;101964.44;;;15.54;100.00
8627;BME280;4351;51.422;6.794;2023-08-30T11:36:32;101886.19;;;15.44;100.00
8627;BME280;4351;51.422;6.794;2023-08-30T11:39:03;101850.44;;;15.50;100.00
8627;BME280;4351;51.422;6.794;2023-08-30T11:41:32;101779.56;;;15.39;100.00
8627;BME280;4351;51.422;6.794;2023-08-30T11:44:00;101761.59;;;15.36;100.00
8627;BME280;4351;51.422;6.794;2023-08-30T11:46:30;101818.13;;;15.31;100.00
8627;BME280;4351;51.422;6.794;2023-08-30T11:48:58;101872.38;;;15.33;100.00
8627;BME280;4351;51.422;6.794;2023-08-30T11:51:26;101890.16;;;15.24;100.00
8627;BME280;4351;51.422;6.794;2023-08-30T11:53:54;101945.00;;;15.45;100.00
8627;BME280;4351;51.422;6.794;2023-08-30T11:56:22;101969.56;;;15.29;100.00
8627;BME280;4351;51.422;6.794;2023-08-30T11:58:52;102033.28;;;15.39;100.00
8627;BME280;4351;51.422;6.794;2023-08-30T12:01:19;102128.88;;;15.48;100.00
8627;BME280;4351;51.422;6.794;2023-08-30T12:03:47;102151.31;;;15.51;100.00
8627;BME280;4351;51.422;6.794;2023-08-30T12:06:17;102184.03;;;15.50;100.00
8627;BME280;4351;51.422;6.794;2023-08-30T12:08:45;102283.41;;;15.56;100.00
8627;BME280;4351;51.422;6.794;2023-08-30T12:11:19;102375.97;;;15.54;100.00
8627;BME280;4351;51.422;6.794;2023-08-30T12:13:47;102431.63;;;15.65;100.00
8627;BME280;4351;51.422;6.794;2023-08-30T12:16:17;102505.94;;;15.65;100.00
8627;BME280;4351;51.422;6.794;2023-08-30T12:18:45;102597.41;;;15.68;100.00
8627;BME280;4351;51.422;6.794;2023-08-30T12:21:13;102638.59;;;15.60;100.00
8627;BME280;4351;51.422;6.794;2023-08-30T12:23:42;102694.63;;;15.64;97.61
8627;BME280;4351;51.422;6.794;2023-08-30T12:26:10;102682.63;;;15.50;90.22
8627;BME280;4351;51.422;6.794;2023-08-30T12:28:39;102733.00;;;15.58;81.90
8627;BME280;4351;51.422;6.794;2023-08-30T12:31:07;102836.38;;;15.58;73.00
8627;BME280;4351;51.422;6.794;2023-08-30T12:33:37;102910.59;;;15.61;65.69
8627;BME280;4351;51.422;6.794;2023-08-30T12:36:07;102934.09;;;15.62;60.33
8627;BME280;4351;51.422;6.794;2023-08-30T12:38:34;102980.78;;;15.53;58.41
8627;BME280;4351;51.422;6.794;2023-08-30T12:41:02;103037.28;;;15.67;55.55
8627;BME280;4351;51.422;6.794;2023-08-30T12:43:31;103084.69;;;15.61;53.63
8627;BME280;4351;51.422;6.794;2023-08-30T12:45:59;103150.66;;;15.67;51.27
8627;BME280;4351;51.422;6.794;2023-08-30T12:48:28;103163.72;;;15.58;50.14
8627;BME280;4351;51.422;6.794;2023-08-30T12:50:58;103199.00;;;15.60;49.34
8627;BME280;4351;51.422;6.794;2023-08-30T12:53:26;103157.84;;;15.47;48.97
8627;BME280;4351;51.422;6.794;2023-08-30T12:55:53;103128.75;;;15.49;48.98
8627;BME280;4351;51.422;6.794;2023-08-30T12:58:21;103057.28;;;15.45;49.48
8627;BME280;4351;51.422;6.794;2023-08-30T13:00:49;103046.41;;;15.66;49.07
8627;BME280;4351;51.422;6.794;2023-08-30T13:03:17;102911.16;;;15.68;50.34
8627;BME280;4351;51.422;6.794;2023-08-30T13:05:45;102829.84;;;15.62;52.53
8627;BME280;4351;51.422;6.794;2023-08-30T13:08:14;102745.53;;;15.62;54.47
8627;BME280;4351;51.422;6.794;2023-08-30T13:10:42;102661.91;;;15.66;55.79